createdAt,value
2023-02-19T00:01:46.485Z,98373.59
2023-02-19T00:04:16.125Z,98376.06
2023-02-19T00:06:44.528Z,98369.88
2023-02-19T00:09:13.350Z,98357.94
2023-02-19T00:11:41.162Z,98348.75
2023-02-19T00:14:08.902Z,98350.53
2023-02-19T00:16:39.309Z,98339.69
2023-02-19T00:19:12.095Z,98349.16
2023-02-19T00:21:39.181Z,98354.28
2023-02-19T00:24:07.725Z,98351.81
2023-02-19T00:26:35.097Z,98322.28
2023-02-19T00:29:02.545Z,98355.28
2023-02-19T00:31:34.516Z,98369.34
2023-02-19T00:34:04.621Z,98354.47
2023-02-19T00:36:32.777Z,98355.63
2023-02-19T00:38:59.879Z,98360.66
2023-02-19T00:41:27.053Z,98344.44
2023-02-19T00:44:00.776Z,98350.53
2023-02-19T00:46:32.186Z,98344.38
2023-02-19T00:49:00.087Z,98328.66
2023-02-19T00:51:32.156Z,98327.28
2023-02-19T00:53:59.369Z,98339.63
2023-02-19T00:56:27.543Z,98344.63
2023-02-19T00:58:56.692Z,98327.69
2023-02-19T01:01:23.910Z,98332.03
2023-02-19T01:03:51.622Z,98320.81
2023-02-19T01:06:20.974Z,98325.88
2023-02-19T01:08:48.441Z,98322.91
2023-02-19T01:11:16.780Z,98327.94
2023-02-19T01:13:44.377Z,98299.53
2023-02-19T01:16:14.432Z,98298.84
2023-02-19T01:18:41.878Z,98305.31
2023-02-19T01:21:13.869Z,98286.47
2023-02-19T01:23:41.771Z,98282.84
2023-02-19T01:26:13.068Z,98287.19
2023-02-19T01:28:41.366Z,98301.25
2023-02-19T01:31:13.127Z,98271.41
2023-02-19T01:33:40.595Z,98280.66
2023-02-19T01:36:07.866Z,98280.38
2023-02-19T01:38:34.956Z,98279.88
2023-02-19T01:41:04.258Z,98277.94
2023-02-19T01:43:36.029Z,98251.66
2023-02-19T01:46:03.197Z,98277.88
2023-02-19T01:48:34.604Z,98283.75
2023-02-19T01:51:13.224Z,98288.53
2023-02-19T01:53:44.803Z,98265.28
2023-02-19T01:56:14.954Z,98276.91
2023-02-19T01:58:42.328Z,98256.56
2023-02-19T02:01:10.103Z,98252.41
2023-02-19T02:03:40.610Z,98253.97
2023-02-19T02:06:08.073Z,98273.69
2023-02-19T02:08:54.143Z,98280.16
2023-02-19T02:11:21.704Z,98260.25
2023-02-19T02:13:49.377Z,98262.72
2023-02-19T02:16:31.755Z,98276.50
2023-02-19T02:19:22.432Z,98273.22
2023-02-19T02:22:12.673Z,98265.41
2023-02-19T02:25:17.766Z,98262.59
2023-02-19T02:28:23.698Z,98264.50
2023-02-19T02:31:06.592Z,98264.38
2023-02-19T02:33:39.780Z,98271.78
2023-02-19T02:36:18.618Z,98265.22
2023-02-19T02:38:47.805Z,98247.28
2023-02-19T02:41:16.259Z,98260.84
2023-02-19T02:43:43.687Z,98259.34
2023-02-19T02:46:12.850Z,98241.34
2023-02-19T02:48:56.765Z,98261.91
2023-02-19T02:51:30.043Z,98257.34
2023-02-19T02:54:53.112Z,98252.72
2023-02-19T02:57:22.397Z,98254.50
2023-02-19T02:59:54.281Z,98253.69
2023-02-19T03:02:26.893Z,98244.06
2023-02-19T03:05:35.068Z,98237.97
2023-02-19T03:08:10.319Z,98242.25
2023-02-19T03:10:43.540Z,98228.44
2023-02-19T03:13:54.463Z,98245.63
2023-02-19T03:16:49.951Z,98244.53
2023-02-19T03:19:20.748Z,98248.13
2023-02-19T03:21:59.462Z,98243.00
2023-02-19T03:24:53.593Z,98241.44
2023-02-19T03:27:22.612Z,98237.94
2023-02-19T03:29:57.187Z,98243.47
2023-02-19T03:33:08.319Z,98231.25
2023-02-19T03:35:43.613Z,98227.25
2023-02-19T03:38:20.938Z,98227.91
2023-02-19T03:41:05.939Z,98223.84
2023-02-19T03:43:53.815Z,98222.75
2023-02-19T03:46:29.609Z,98226.31
2023-02-19T03:49:02.107Z,98215.84
2023-02-19T03:51:51.517Z,98221.31
2023-02-19T03:54:27.910Z,98217.25
2023-02-19T03:57:05.872Z,98210.50
2023-02-19T03:59:36.666Z,98209.38
2023-02-19T04:02:12.783Z,98171.78
2023-02-19T04:04:47.573Z,98203.72
2023-02-19T04:07:15.114Z,98208.25
2023-02-19T04:09:49.107Z,98208.94
2023-02-19T04:12:21.170Z,98208.44
2023-02-19T04:15:06.122Z,98201.97
2023-02-19T04:18:07.655Z,98198.25
2023-02-19T04:20:41.286Z,98198.84
2023-02-19T04:23:08.803Z,98207.59
2023-02-19T04:25:39.758Z,98197.78
2023-02-19T04:28:09.168Z,98208.38
2023-02-19T04:30:36.473Z,98200.13
2023-02-19T04:33:03.582Z,98196.81
2023-02-19T04:35:30.766Z,98200.28
2023-02-19T04:37:58.033Z,98191.88
2023-02-19T04:40:25.083Z,98203.72
2023-02-19T04:42:52.189Z,98187.06
2023-02-19T04:45:19.342Z,98178.72
2023-02-19T04:47:46.434Z,98190.53
2023-02-19T04:50:13.521Z,98190.53
2023-02-19T04:52:40.871Z,98176.97
2023-02-19T04:55:09.217Z,98197.03
2023-02-19T04:57:36.417Z,98191.16
2023-02-19T05:00:04.907Z,98178.94
2023-02-19T05:02:32.169Z,98191.34
2023-02-19T05:05:00.235Z,98188.16
2023-02-19T05:07:27.317Z,98181.69
2023-02-19T05:09:54.432Z,98188.28
2023-02-19T05:12:22.118Z,98173.25
2023-02-19T05:14:49.416Z,98170.53
2023-02-19T05:17:16.545Z,98169.47
2023-02-19T05:19:43.660Z,98168.53
2023-02-19T05:22:10.746Z,98173.06
2023-02-19T05:24:37.809Z,98166.91
2023-02-19T05:27:04.973Z,98166.78
2023-02-19T05:29:32.641Z,98170.38
2023-02-19T05:31:59.710Z,98173.66
2023-02-19T05:34:26.771Z,98171.03
2023-02-19T05:36:53.893Z,98160.13
2023-02-19T05:39:20.971Z,98163.09
2023-02-19T05:41:48.037Z,98161.97
2023-02-19T05:44:15.149Z,98157.34
2023-02-19T05:46:42.270Z,98161.75
2023-02-19T05:49:09.381Z,98162.78
2023-02-19T05:51:36.462Z,98154.06
2023-02-19T05:54:03.971Z,98152.69
2023-02-19T05:56:32.844Z,98156.28
2023-02-19T05:59:03.965Z,98148.97
2023-02-19T06:01:31.511Z,98163.59
2023-02-19T06:03:58.782Z,98145.75
2023-02-19T06:06:26.789Z,98154.75
2023-02-19T06:08:54.351Z,98135.19
2023-02-19T06:11:21.762Z,98138.19
2023-02-19T06:13:50.407Z,98144.53
2023-02-19T06:16:18.480Z,98118.91
2023-02-19T06:18:46.205Z,98144.25
2023-02-19T06:21:14.937Z,98154.19
2023-02-19T06:23:42.876Z,98129.69
2023-02-19T06:26:13.306Z,98143.25
2023-02-19T06:28:42.074Z,98155.75
2023-02-19T06:31:10.552Z,98144.25
2023-02-19T06:33:41.840Z,98158.47
2023-02-19T06:36:13.314Z,98152.44
2023-02-19T06:38:40.519Z,98150.78
2023-02-19T06:41:09.019Z,98132.06
2023-02-19T06:43:36.770Z,98133.59
2023-02-19T06:46:05.982Z,98147.00
2023-02-19T06:48:33.552Z,98118.38
2023-02-19T06:51:00.928Z,98130.09
2023-02-19T06:53:28.044Z,98124.59
2023-02-19T06:56:02.324Z,98131.53
2023-02-19T06:58:29.780Z,98115.31
2023-02-19T07:00:57.154Z,98117.47
2023-02-19T07:03:24.439Z,98135.31
2023-02-19T07:05:51.928Z,98104.09
2023-02-19T07:08:19.167Z,98118.66
2023-02-19T07:10:46.363Z,98098.94
2023-02-19T07:13:13.398Z,98113.31
2023-02-19T07:15:40.576Z,98114.50
2023-02-19T07:18:10.609Z,98101.84
2023-02-19T07:20:38.262Z,98110.91
2023-02-19T07:23:05.342Z,98094.53
2023-02-19T07:25:32.497Z,98086.31
2023-02-19T07:27:59.625Z,98102.47
2023-02-19T07:30:26.830Z,98103.84
2023-02-19T07:32:53.966Z,98089.16
2023-02-19T07:35:21.065Z,98088.25
2023-02-19T07:37:48.230Z,98097.34
2023-02-19T07:40:15.416Z,98098.97
2023-02-19T07:42:42.530Z,98098.19
2023-02-19T07:45:10.017Z,98088.09
2023-02-19T07:47:37.232Z,98086.56
2023-02-19T07:50:04.509Z,98067.84
2023-02-19T07:52:33.565Z,98081.44
2023-02-19T07:55:00.637Z,98071.81
2023-02-19T07:57:31.446Z,98077.41
2023-02-19T07:59:59.075Z,98085.75
2023-02-19T08:02:44.952Z,98078.25
2023-02-19T08:05:13.654Z,98073.31
2023-02-19T08:07:40.757Z,98070.19
2023-02-19T08:10:26.506Z,98059.91
2023-02-19T08:13:19.456Z,98060.94
2023-02-19T08:15:47.445Z,98067.94
2023-02-19T08:18:16.472Z,98061.75
2023-02-19T08:20:44.381Z,98061.25
2023-02-19T08:23:12.835Z,98063.28
2023-02-19T08:25:41.110Z,98071.19
2023-02-19T08:28:09.848Z,98060.28
2023-02-19T08:30:38.677Z,98062.69
2023-02-19T08:33:07.618Z,98061.03
2023-02-19T08:35:36.657Z,98062.69
2023-02-19T08:38:04.991Z,98049.97
2023-02-19T08:40:33.487Z,98036.25
2023-02-19T08:43:08.981Z,98050.63
2023-02-19T08:45:38.511Z,98049.06
2023-02-19T08:48:06.089Z,98048.56
2023-02-19T08:50:33.441Z,98048.63
2023-02-19T08:53:01.628Z,98052.13
2023-02-19T08:55:29.230Z,98053.31
2023-02-19T08:57:56.516Z,98037.84
2023-02-19T09:00:23.923Z,98038.75
2023-02-19T09:02:51.096Z,98033.47
2023-02-19T09:05:18.265Z,98048.03
2023-02-19T09:07:45.416Z,98018.03
2023-02-19T09:10:13.859Z,98035.19
2023-02-19T09:12:41.816Z,98029.50
2023-02-19T09:15:09.569Z,98029.44
2023-02-19T09:17:36.697Z,98016.84
2023-02-19T09:20:04.358Z,98007.28
2023-02-19T09:22:31.412Z,98027.63
2023-02-19T09:24:58.484Z,98027.28
2023-02-19T09:27:25.608Z,98022.88
2023-02-19T09:29:52.698Z,98014.97
2023-02-19T09:32:19.833Z,98012.75
2023-02-19T09:34:46.932Z,98010.69
2023-02-19T09:37:13.938Z,98012.97
2023-02-19T09:39:40.988Z,98009.63
2023-02-19T09:42:27.274Z,98007.38
2023-02-19T09:44:57.760Z,97999.31
2023-02-19T09:47:28.269Z,98005.53
2023-02-19T09:50:17.610Z,97992.53
2023-02-19T09:52:55.277Z,98001.41
2023-02-19T09:55:38.069Z,97997.34
2023-02-19T09:58:30.200Z,97989.75
2023-02-19T10:01:01.456Z,97987.13
2023-02-19T10:03:33.873Z,97989.03
2023-02-19T10:06:24.349Z,97984.38
2023-02-19T10:08:56.279Z,97983.22
2023-02-19T10:11:26.360Z,97973.72
2023-02-19T10:14:09.434Z,97981.63
2023-02-19T10:16:41.194Z,97984.25
2023-02-19T10:19:13.669Z,97984.44
2023-02-19T10:21:41.939Z,97978.63
2023-02-19T10:24:17.003Z,97973.56
2023-02-19T10:26:44.072Z,97979.97
2023-02-19T10:29:11.710Z,97982.31
2023-02-19T10:31:38.993Z,97975.56
2023-02-19T10:34:18.950Z,97983.91
2023-02-19T10:36:50.425Z,97978.00
2023-02-19T10:39:23.313Z,97984.19
2023-02-19T10:41:51.806Z,97986.56
2023-02-19T10:44:23.968Z,97980.50
2023-02-19T10:46:55.467Z,97972.22
2023-02-19T10:49:37.739Z,97969.28
2023-02-19T10:52:36.774Z,97976.69
2023-02-19T10:55:26.910Z,97978.59
2023-02-19T10:57:55.224Z,97970.06
2023-02-19T11:00:29.037Z,97965.72
2023-02-19T11:03:15.126Z,97969.22
2023-02-19T11:06:02.204Z,97963.50
2023-02-19T11:08:30.601Z,97957.88
2023-02-19T11:10:59.011Z,97969.38
2023-02-19T11:13:32.793Z,97961.88
2023-02-19T11:16:00.531Z,97965.38
2023-02-19T11:18:37.101Z,97961.25
2023-02-19T11:21:06.700Z,97962.09
2023-02-19T11:23:47.297Z,97943.34
2023-02-19T11:26:24.256Z,97940.16
2023-02-19T11:29:11.510Z,97956.84
2023-02-19T11:31:38.675Z,97952.28
2023-02-19T11:34:14.796Z,97955.41
2023-02-19T11:36:42.678Z,97944.50
2023-02-19T11:39:16.011Z,97947.59
2023-02-19T11:42:01.409Z,97945.59
2023-02-19T11:44:35.409Z,97948.28
2023-02-19T11:47:24.708Z,97947.22
2023-02-19T11:50:16.090Z,97945.34
2023-02-19T11:52:51.172Z,97937.69
2023-02-19T11:55:46.031Z,97942.38
2023-02-19T11:58:21.935Z,97945.44
2023-02-19T12:01:00.865Z,97948.63
2023-02-19T12:04:20.997Z,97951.44
2023-02-19T12:07:18.733Z,97954.06
2023-02-19T12:09:58.403Z,97946.69
2023-02-19T12:12:42.062Z,97949.09
2023-02-19T12:15:38.349Z,97941.06
2023-02-19T12:18:27.734Z,97941.66
2023-02-19T12:21:19.213Z,97936.72
2023-02-19T12:24:24.639Z,97937.22
2023-02-19T12:27:13.077Z,97938.78
2023-02-19T12:30:20.946Z,97943.53
2023-02-19T12:33:00.106Z,97928.63
2023-02-19T12:35:43.556Z,97940.16
2023-02-19T12:38:42.448Z,97942.84
2023-02-19T12:41:21.252Z,97943.66
2023-02-19T12:44:00.920Z,97939.47
2023-02-19T12:46:38.640Z,97945.31
2023-02-19T12:49:34.901Z,97950.66
2023-02-19T12:52:24.280Z,97951.16
2023-02-19T12:54:56.008Z,97951.09
2023-02-19T12:57:30.363Z,97943.59
2023-02-19T13:00:08.082Z,97939.06
2023-02-19T13:03:12.445Z,97948.28
2023-02-19T13:05:50.059Z,97941.81
2023-02-19T13:08:34.103Z,97946.22
2023-02-19T13:11:15.329Z,97944.50
2023-02-19T13:13:48.522Z,97956.78
2023-02-19T13:16:19.443Z,97957.28
2023-02-19T13:18:48.850Z,97953.56
2023-02-19T13:21:37.895Z,97958.97
2023-02-19T13:24:10.083Z,97942.41
2023-02-19T13:26:37.226Z,97941.97
2023-02-19T13:29:34.855Z,97950.34
2023-02-19T13:32:10.862Z,97946.09
2023-02-19T13:35:20.306Z,97940.91
2023-02-19T13:37:48.842Z,97934.66
2023-02-19T13:40:22.864Z,97936.91
2023-02-19T13:42:55.126Z,97944.41
2023-02-19T13:45:27.514Z,97940.78
2023-02-19T13:47:54.781Z,97943.94
2023-02-19T13:50:23.319Z,97922.00
2023-02-19T13:52:51.729Z,97949.16
2023-02-19T13:55:44.291Z,97952.47
2023-02-19T13:58:33.318Z,97939.66
2023-02-19T14:01:06.447Z,97942.41
2023-02-19T14:03:55.368Z,97925.94
2023-02-19T14:06:22.878Z,97941.34
2023-02-19T14:08:56.256Z,97928.69
2023-02-19T14:11:41.739Z,97931.03
2023-02-19T14:14:39.971Z,97929.00
2023-02-19T14:17:09.732Z,97922.69
2023-02-19T14:19:42.951Z,97917.13
2023-02-19T14:22:43.948Z,97916.06
2023-02-19T14:25:29.661Z,97922.53
2023-02-19T14:28:15.738Z,97917.13
2023-02-19T14:30:51.789Z,97913.59
2023-02-19T14:33:24.118Z,97916.81
2023-02-19T14:36:03.521Z,97923.78
2023-02-19T14:38:36.943Z,97916.47
2023-02-19T14:41:06.448Z,97912.72
2023-02-19T14:43:35.429Z,97911.22
2023-02-19T14:46:17.518Z,97909.03
2023-02-19T14:48:47.891Z,97890.16
2023-02-19T14:51:31.689Z,97908.41
2023-02-19T14:54:01.704Z,97912.56
2023-02-19T14:56:34.618Z,97906.22
2023-02-19T14:59:29.016Z,97917.22
2023-02-19T15:02:13.582Z,97910.13
2023-02-19T15:04:40.812Z,97909.38
2023-02-19T15:07:11.990Z,97916.06
2023-02-19T15:09:46.851Z,97906.69
2023-02-19T15:12:25.684Z,97914.50
2023-02-19T15:15:00.256Z,97908.03
2023-02-19T15:17:30.848Z,97908.94
2023-02-19T15:20:03.619Z,97905.94
2023-02-19T15:22:32.725Z,97910.34
2023-02-19T15:25:05.272Z,97899.91
2023-02-19T15:27:34.437Z,97911.03
2023-02-19T15:30:01.629Z,97886.84
2023-02-19T15:32:32.769Z,97903.50
2023-02-19T15:35:03.004Z,97903.66
2023-02-19T15:37:34.047Z,97890.28
2023-02-19T15:40:05.669Z,97897.50
2023-02-19T15:42:35.118Z,97895.94
2023-02-19T15:45:25.125Z,97906.47
2023-02-19T15:47:56.115Z,97902.94
2023-02-19T15:50:26.042Z,97889.13
2023-02-19T15:53:04.643Z,97882.75
2023-02-19T15:55:40.876Z,97880.00
2023-02-19T15:58:19.779Z,97886.34
2023-02-19T16:00:52.442Z,97887.47
2023-02-19T16:03:22.227Z,97876.44
2023-02-19T16:06:06.738Z,97881.38
2023-02-19T16:08:36.753Z,97879.59
2023-02-19T16:11:28.205Z,97870.63
2023-02-19T16:14:35.034Z,97870.63
2023-02-19T16:17:11.212Z,97875.69
2023-02-19T16:19:55.531Z,97879.53
2023-02-19T16:22:26.830Z,97874.44
2023-02-19T16:24:59.011Z,97880.00
2023-02-19T16:27:41.887Z,97869.53
2023-02-19T16:30:11.049Z,97859.56
2023-02-19T16:32:38.288Z,97870.91
2023-02-19T16:35:06.443Z,97874.94
2023-02-19T16:37:37.774Z,97872.56
2023-02-19T16:40:07.819Z,97867.97
2023-02-19T16:42:37.147Z,97865.00
2023-02-19T16:45:04.581Z,97864.38
2023-02-19T16:47:34.501Z,97862.44
2023-02-19T16:50:04.077Z,97849.03
2023-02-19T16:52:31.464Z,97869.34
2023-02-19T16:54:58.794Z,97834.19
2023-02-19T16:57:25.949Z,97868.44
2023-02-19T16:59:53.102Z,97875.31
2023-02-19T17:02:22.807Z,97861.97
2023-02-19T17:04:51.924Z,97862.75
2023-02-19T17:07:19.135Z,97864.69
2023-02-19T17:09:46.276Z,97855.88
2023-02-19T17:12:16.003Z,97867.38
2023-02-19T17:14:43.247Z,97854.13
2023-02-19T17:17:10.396Z,97863.75
2023-02-19T17:19:39.459Z,97855.69
2023-02-19T17:22:07.215Z,97857.72
2023-02-19T17:24:34.443Z,97853.84
2023-02-19T17:27:01.739Z,97848.25
2023-02-19T17:29:30.682Z,97856.31
2023-02-19T17:31:57.893Z,97852.66
2023-02-19T17:34:25.056Z,97850.13
2023-02-19T17:36:52.209Z,97846.00
2023-02-19T17:39:19.639Z,97849.19
2023-02-19T17:41:46.736Z,97835.00
2023-02-19T17:44:13.872Z,97838.69
2023-02-19T17:46:41.669Z,97836.44
2023-02-19T17:49:11.186Z,97838.44
2023-02-19T17:51:38.278Z,97834.63
2023-02-19T17:54:08.034Z,97810.47
2023-02-19T17:56:35.742Z,97839.06
2023-02-19T17:59:02.900Z,97835.31
2023-02-19T18:01:30.022Z,97833.66
2023-02-19T18:03:57.201Z,97841.63
2023-02-19T18:06:24.295Z,97834.41
2023-02-19T18:08:53.175Z,97832.94
2023-02-19T18:11:22.402Z,97837.94
2023-02-19T18:13:52.888Z,97832.63
2023-02-19T18:16:20.503Z,97835.16
2023-02-19T18:18:47.768Z,97826.38
2023-02-19T18:21:15.058Z,97821.59
2023-02-19T18:23:42.418Z,97825.72
2023-02-19T18:26:11.345Z,97821.44
2023-02-19T18:28:39.454Z,97818.09
2023-02-19T18:31:06.977Z,97811.66
2023-02-19T18:33:37.004Z,97828.19
2023-02-19T18:36:04.665Z,97824.81
2023-02-19T18:38:31.716Z,97827.38
2023-02-19T18:40:58.982Z,97818.63
2023-02-19T18:43:26.056Z,97819.63
2023-02-19T18:45:53.212Z,97822.50
2023-02-19T18:48:20.383Z,97825.25
2023-02-19T18:50:47.614Z,97820.00
2023-02-19T18:53:14.776Z,97816.28
2023-02-19T18:55:41.903Z,97810.72
2023-02-19T18:58:09.013Z,97814.03
2023-02-19T19:00:36.328Z,97807.50
2023-02-19T19:03:03.519Z,97811.34
2023-02-19T19:05:30.724Z,97814.50
2023-02-19T19:07:59.574Z,97808.13
2023-02-19T19:10:26.748Z,97810.78
2023-02-19T19:12:54.546Z,97809.84
2023-02-19T19:15:22.457Z,97813.59
2023-02-19T19:17:49.634Z,97814.22
2023-02-19T19:20:21.921Z,97805.41
2023-02-19T19:22:50.713Z,97799.44
2023-02-19T19:25:18.563Z,97806.69
2023-02-19T19:27:46.215Z,97800.78
2023-02-19T19:30:13.824Z,97793.50
2023-02-19T19:32:40.967Z,97792.72
2023-02-19T19:35:08.633Z,97791.47
2023-02-19T19:37:35.718Z,97799.38
2023-02-19T19:40:04.137Z,97798.31
2023-02-19T19:42:31.240Z,97792.75
2023-02-19T19:44:58.360Z,97791.78
2023-02-19T19:47:25.449Z,97809.50
2023-02-19T19:49:52.537Z,97788.59
2023-02-19T19:52:19.685Z,97795.13
2023-02-19T19:54:47.028Z,97801.03
2023-02-19T19:57:15.993Z,97804.34
2023-02-19T19:59:43.040Z,97804.69
2023-02-19T20:02:12.045Z,97809.63
2023-02-19T20:04:39.107Z,97801.16
2023-02-19T20:07:06.447Z,97796.72
2023-02-19T20:09:33.764Z,97804.47
2023-02-19T20:12:00.915Z,97811.25
2023-02-19T20:14:28.029Z,97809.81
2023-02-19T20:16:55.665Z,97803.50
2023-02-19T20:19:22.860Z,97797.47
2023-02-19T20:21:52.675Z,97790.34
2023-02-19T20:24:28.956Z,97781.16
2023-02-19T20:27:00.424Z,97798.28
2023-02-19T20:29:29.945Z,97777.22
2023-02-19T20:32:00.303Z,97783.84
2023-02-19T20:34:27.891Z,97780.75
2023-02-19T20:36:55.363Z,97787.53
2023-02-19T20:39:22.843Z,97798.00
2023-02-19T20:41:52.005Z,97797.91
2023-02-19T20:44:19.940Z,97796.53
2023-02-19T20:46:49.502Z,97800.84
2023-02-19T20:49:19.285Z,97790.00
2023-02-19T20:51:49.611Z,97794.41
2023-02-19T20:54:18.407Z,97791.16
2023-02-19T20:56:49.814Z,97785.66
2023-02-19T20:59:18.352Z,97791.84
2023-02-19T21:01:45.787Z,97788.00
2023-02-19T21:04:13.734Z,97789.47
2023-02-19T21:06:40.837Z,97777.41
2023-02-19T21:09:08.311Z,97787.88
2023-02-19T21:11:35.590Z,97787.56
2023-02-19T21:14:03.149Z,97785.06
2023-02-19T21:16:32.170Z,97781.72
2023-02-19T21:18:59.776Z,97788.16
2023-02-19T21:21:27.035Z,97778.50
2023-02-19T21:23:55.959Z,97784.84
2023-02-19T21:26:24.006Z,97772.94
2023-02-19T21:28:54.167Z,97789.38
2023-02-19T21:31:22.812Z,97789.91
2023-02-19T21:33:51.673Z,97768.56
2023-02-19T21:36:18.755Z,97793.44
2023-02-19T21:38:46.109Z,97788.88
2023-02-19T21:41:13.182Z,97783.03
2023-02-19T21:43:40.277Z,97792.19
2023-02-19T21:46:07.372Z,97778.78
2023-02-19T21:48:34.453Z,97778.41
2023-02-19T21:51:01.880Z,97789.63
2023-02-19T21:53:28.981Z,97794.16
2023-02-19T21:55:59.118Z,97790.84
2023-02-19T21:58:26.871Z,97780.56
2023-02-19T22:00:54.326Z,97798.84
2023-02-19T22:03:21.435Z,97786.91
2023-02-19T22:05:48.467Z,97796.72
2023-02-19T22:08:17.558Z,97799.78
2023-02-19T22:10:44.755Z,97791.34
2023-02-19T22:13:11.861Z,97769.25
2023-02-19T22:15:38.918Z,97790.19
2023-02-19T22:18:06.162Z,97791.13
2023-02-19T22:20:34.844Z,97786.19
2023-02-19T22:23:02.055Z,97791.63
2023-02-19T22:25:29.084Z,97795.09
2023-02-19T22:27:56.197Z,97782.84
2023-02-19T22:30:23.288Z,97794.53
2023-02-19T22:32:50.440Z,97790.66
2023-02-19T22:35:17.623Z,97793.44
2023-02-19T22:37:44.760Z,97791.09
2023-02-19T22:40:12.255Z,97795.09
2023-02-19T22:42:39.553Z,97783.53
2023-02-19T22:45:07.294Z,97784.91
2023-02-19T22:47:34.338Z,97776.50
2023-02-19T22:50:01.425Z,97785.69
2023-02-19T22:52:30.326Z,97783.84
2023-02-19T22:54:57.556Z,97783.84
2023-02-19T22:57:24.618Z,97782.91
2023-02-19T22:59:51.779Z,97780.13
2023-02-19T23:02:18.929Z,97788.28
2023-02-19T23:04:46.183Z,97787.94
2023-02-19T23:07:13.374Z,97787.81
2023-02-19T23:09:40.541Z,97787.56
2023-02-19T23:12:10.602Z,97768.69
2023-02-19T23:14:38.077Z,97788.41
2023-02-19T23:17:05.452Z,97794.63
2023-02-19T23:19:32.923Z,97803.53
2023-02-19T23:22:00.278Z,97778.25
2023-02-19T23:24:27.414Z,97796.91
2023-02-19T23:26:54.945Z,97797.84
2023-02-19T23:29:25.608Z,97803.44
2023-02-19T23:31:53.929Z,97809.97
2023-02-19T23:34:21.740Z,97809.81
2023-02-19T23:36:50.536Z,97799.84
2023-02-19T23:39:21.488Z,97783.91
2023-02-19T23:41:48.549Z,97807.97
2023-02-19T23:44:16.498Z,97801.28
2023-02-19T23:46:43.773Z,97789.03
2023-02-19T23:49:11.067Z,97799.75
2023-02-19T23:51:38.199Z,97801.19
2023-02-19T23:54:05.465Z,97812.41
2023-02-19T23:56:32.817Z,97814.50
2023-02-19T23:59:00.123Z,97807.97
